sensor_id;sensor_type;location;lat;lon;timestamp;P1;durP1;ratioP1;P2;durP2;ratioP2
54539;SDS011;40438;52.992;18.604;2023-04-03T00:01:12;3.97;;;1.30;;
54539;SDS011;40438;52.992;18.604;2023-04-03T00:03:38;3.28;;;1.45;;
54539;SDS011;40438;52.992;18.604;2023-04-03T00:06:05;2.63;;;1.23;;
54539;SDS011;40438;52.992;18.604;2023-04-03T00:08:31;3.05;;;1.25;;
54539;SDS011;40438;52.992;18.604;2023-04-03T00:10:56;3.90;;;1.23;;
54539;SDS011;40438;52.992;18.604;2023-04-03T00:13:24;2.17;;;1.10;;
54539;SDS011;40438;52.992;18.604;2023-04-03T00:15:49;2.97;;;1.23;;
54539;SDS011;40438;52.992;18.604;2023-04-03T00:18:15;1.70;;;0.90;;
54539;SDS011;40438;52.992;18.604;2023-04-03T00:20:41;2.80;;;1.27;;
54539;SDS011;40438;52.992;18.604;2023-04-03T00:23:07;3.22;;;1.15;;
54539;SDS011;40438;52.992;18.604;2023-04-03T00:25:32;3.08;;;0.88;;
54539;SDS011;40438;52.992;18.604;2023-04-03T00:27:59;3.05;;;1.20;;
54539;SDS011;40438;52.992;18.604;2023-04-03T00:30:27;3.95;;;1.45;;
54539;SDS011;40438;52.992;18.604;2023-04-03T00:32:53;2.90;;;0.95;;
54539;SDS011;40438;52.992;18.604;2023-04-03T00:35:20;5.93;;;1.10;;
54539;SDS011;40438;52.992;18.604;2023-04-03T00:37:48;1.83;;;0.85;;
54539;SDS011;40438;52.992;18.604;2023-04-03T00:40:16;3.33;;;0.98;;
54539;SDS011;40438;52.992;18.604;2023-04-03T00:42:42;4.38;;;1.45;;
54539;SDS011;40438;52.992;18.604;2023-04-03T00:45:29;3.88;;;1.20;;
54539;SDS011;40438;52.992;18.604;2023-04-03T00:48:02;2.67;;;1.10;;
54539;SDS011;40438;52.992;18.604;2023-04-03T00:50:30;2.63;;;0.90;;
54539;SDS011;40438;52.992;18.604;2023-04-03T00:52:59;3.67;;;1.08;;
54539;SDS011;40438;52.992;18.604;2023-04-03T00:55:26;2.88;;;0.82;;
54539;SDS011;40438;52.992;18.604;2023-04-03T00:57:52;4.00;;;1.00;;
54539;SDS011;40438;52.992;18.604;2023-04-03T01:00:20;4.35;;;0.70;;
54539;SDS011;40438;52.992;18.604;2023-04-03T01:02:48;2.08;;;0.90;;
54539;SDS011;40438;52.992;18.604;2023-04-03T01:05:15;2.88;;;1.10;;
54539;SDS011;40438;52.992;18.604;2023-04-03T01:07:43;2.28;;;1.13;;
54539;SDS011;40438;52.992;18.604;2023-04-03T01:10:10;2.67;;;0.80;;
54539;SDS011;40438;52.992;18.604;2023-04-03T01:12:39;3.72;;;1.05;;
54539;SDS011;40438;52.992;18.604;2023-04-03T01:15:07;2.53;;;0.88;;
54539;SDS011;40438;52.992;18.604;2023-04-03T01:17:36;3.58;;;0.95;;
54539;SDS011;40438;52.992;18.604;2023-04-03T01:20:24;3.50;;;1.00;;
54539;SDS011;40438;52.992;18.604;2023-04-03T01:23:12;2.42;;;0.93;;
54539;SDS011;40438;52.992;18.604;2023-04-03T01:25:48;3.75;;;1.00;;
54539;SDS011;40438;52.992;18.604;2023-04-03T01:28:16;2.63;;;1.00;;
54539;SDS011;40438;52.992;18.604;2023-04-03T01:30:44;2.92;;;0.90;;
54539;SDS011;40438;52.992;18.604;2023-04-03T01:33:15;2.50;;;1.17;;
54539;SDS011;40438;52.992;18.604;2023-04-03T01:35:41;1.83;;;0.73;;
54539;SDS011;40438;52.992;18.604;2023-04-03T01:38:07;3.03;;;0.98;;
54539;SDS011;40438;52.992;18.604;2023-04-03T01:40:33;2.70;;;0.95;;
54539;SDS011;40438;52.992;18.604;2023-04-03T01:42:59;2.28;;;0.90;;
54539;SDS011;40438;52.992;18.604;2023-04-03T01:45:25;0.77;;;0.63;;
54539;SDS011;40438;52.992;18.604;2023-04-03T01:47:51;2.88;;;1.25;;
54539;SDS011;40438;52.992;18.604;2023-04-03T01:50:18;4.88;;;0.85;;
54539;SDS011;40438;52.992;18.604;2023-04-03T01:52:44;3.72;;;0.98;;
54539;SDS011;40438;52.992;18.604;2023-04-03T01:55:10;1.92;;;1.05;;
54539;SDS011;40438;52.992;18.604;2023-04-03T01:57:36;2.05;;;1.05;;
54539;SDS011;40438;52.992;18.604;2023-04-03T02:00:02;2.60;;;1.13;;
54539;SDS011;40438;52.992;18.604;2023-04-03T02:02:38;1.85;;;0.90;;
54539;SDS011;40438;52.992;18.604;2023-04-03T02:05:04;2.92;;;0.70;;
54539;SDS011;40438;52.992;18.604;2023-04-03T02:07:32;1.52;;;0.70;;
54539;SDS011;40438;52.992;18.604;2023-04-03T02:09:58;2.75;;;1.05;;
54539;SDS011;40438;52.992;18.604;2023-04-03T02:12:24;2.25;;;0.82;;
54539;SDS011;40438;52.992;18.604;2023-04-03T02:14:50;5.22;;;0.88;;
54539;SDS011;40438;52.992;18.604;2023-04-03T02:17:15;2.20;;;0.90;;
54539;SDS011;40438;52.992;18.604;2023-04-03T02:19:41;3.83;;;1.80;;
54539;SDS011;40438;52.992;18.604;2023-04-03T02:22:07;2.25;;;0.82;;
54539;SDS011;40438;52.992;18.604;2023-04-03T02:24:34;3.42;;;1.08;;
54539;SDS011;40438;52.992;18.604;2023-04-03T02:27:00;2.90;;;0.82;;
54539;SDS011;40438;52.992;18.604;2023-04-03T02:29:26;1.00;;;0.70;;
54539;SDS011;40438;52.992;18.604;2023-04-03T02:31:52;1.77;;;0.90;;
54539;SDS011;40438;52.992;18.604;2023-04-03T02:34:20;2.25;;;0.80;;
54539;SDS011;40438;52.992;18.604;2023-04-03T02:36:46;2.22;;;0.80;;
54539;SDS011;40438;52.992;18.604;2023-04-03T02:39:13;2.13;;;0.90;;
54539;SDS011;40438;52.992;18.604;2023-04-03T02:41:40;2.13;;;0.80;;
54539;SDS011;40438;52.992;18.604;2023-04-03T02:44:12;1.67;;;0.70;;
54539;SDS011;40438;52.992;18.604;2023-04-03T02:46:38;2.58;;;1.13;;
54539;SDS011;40438;52.992;18.604;2023-04-03T02:49:04;1.58;;;0.60;;
54539;SDS011;40438;52.992;18.604;2023-04-03T02:51:30;3.63;;;1.10;;
54539;SDS011;40438;52.992;18.604;2023-04-03T02:53:56;2.30;;;0.77;;
54539;SDS011;40438;52.992;18.604;2023-04-03T02:56:26;2.65;;;0.80;;
54539;SDS011;40438;52.992;18.604;2023-04-03T02:58:53;0.93;;;0.73;;
54539;SDS011;40438;52.992;18.604;2023-04-03T03:01:20;4.13;;;0.98;;
54539;SDS011;40438;52.992;18.604;2023-04-03T03:03:46;2.72;;;0.80;;
54539;SDS011;40438;52.992;18.604;2023-04-03T03:06:12;2.03;;;0.80;;
54539;SDS011;40438;52.992;18.604;2023-04-03T03:08:39;3.00;;;0.98;;
54539;SDS011;40438;52.992;18.604;2023-04-03T03:11:05;1.10;;;0.70;;
54539;SDS011;40438;52.992;18.604;2023-04-03T03:13:32;1.80;;;0.77;;
54539;SDS011;40438;52.992;18.604;2023-04-03T03:16:00;2.78;;;1.05;;
54539;SDS011;40438;52.992;18.604;2023-04-03T03:18:27;1.17;;;0.77;;
54539;SDS011;40438;52.992;18.604;2023-04-03T03:20:53;2.00;;;0.70;;
54539;SDS011;40438;52.992;18.604;2023-04-03T03:23:20;1.85;;;0.98;;
54539;SDS011;40438;52.992;18.604;2023-04-03T03:25:47;2.03;;;0.70;;
54539;SDS011;40438;52.992;18.604;2023-04-03T03:28:13;1.98;;;0.68;;
54539;SDS011;40438;52.992;18.604;2023-04-03T03:30:38;2.33;;;0.80;;
54539;SDS011;40438;52.992;18.604;2023-04-03T03:33:06;1.90;;;0.73;;
54539;SDS011;40438;52.992;18.604;2023-04-03T03:35:32;3.08;;;0.90;;
54539;SDS011;40438;52.992;18.604;2023-04-03T03:37:57;4.95;;;1.05;;
54539;SDS011;40438;52.992;18.604;2023-04-03T03:40:24;3.28;;;0.60;;
54539;SDS011;40438;52.992;18.604;2023-04-03T03:42:49;2.00;;;0.65;;
54539;SDS011;40438;52.992;18.604;2023-04-03T03:45:15;2.10;;;1.00;;
54539;SDS011;40438;52.992;18.604;2023-04-03T03:47:41;1.20;;;0.63;;
54539;SDS011;40438;52.992;18.604;2023-04-03T03:50:08;1.35;;;0.68;;
54539;SDS011;40438;52.992;18.604;2023-04-03T03:52:35;3.50;;;0.77;;
54539;SDS011;40438;52.992;18.604;2023-04-03T03:55:01;2.38;;;0.73;;
54539;SDS011;40438;52.992;18.604;2023-04-03T03:57:27;1.45;;;0.70;;
54539;SDS011;40438;52.992;18.604;2023-04-03T03:59:52;1.70;;;0.93;;
54539;SDS011;40438;52.992;18.604;2023-04-03T04:02:18;1.73;;;0.90;;
54539;SDS011;40438;52.992;18.604;2023-04-03T04:04:44;2.25;;;0.60;;
54539;SDS011;40438;52.992;18.604;2023-04-03T04:07:11;1.75;;;0.75;;
54539;SDS011;40438;52.992;18.604;2023-04-03T04:09:37;1.25;;;0.85;;
54539;SDS011;40438;52.992;18.604;2023-04-03T04:12:03;2.15;;;0.90;;
54539;SDS011;40438;52.992;18.604;2023-04-03T04:14:31;1.63;;;0.70;;
54539;SDS011;40438;52.992;18.604;2023-04-03T04:16:58;1.42;;;0.70;;
54539;SDS011;40438;52.992;18.604;2023-04-03T04:19:26;1.33;;;0.75;;
54539;SDS011;40438;52.992;18.604;2023-04-03T04:21:52;1.67;;;0.70;;
54539;SDS011;40438;52.992;18.604;2023-04-03T04:24:20;1.63;;;0.68;;
54539;SDS011;40438;52.992;18.604;2023-04-03T04:26:48;2.08;;;0.70;;
54539;SDS011;40438;52.992;18.604;2023-04-03T04:29:16;1.58;;;0.80;;
54539;SDS011;40438;52.992;18.604;2023-04-03T04:31:44;1.27;;;0.77;;
54539;SDS011;40438;52.992;18.604;2023-04-03T04:34:10;2.35;;;0.68;;
54539;SDS011;40438;52.992;18.604;2023-04-03T04:36:36;1.55;;;0.65;;
54539;SDS011;40438;52.992;18.604;2023-04-03T04:39:02;3.40;;;0.80;;
54539;SDS011;40438;52.992;18.604;2023-04-03T04:41:30;1.80;;;0.80;;
54539;SDS011;40438;52.992;18.604;2023-04-03T04:43:56;3.22;;;0.82;;
54539;SDS011;40438;52.992;18.604;2023-04-03T04:46:22;2.25;;;0.85;;
54539;SDS011;40438;52.992;18.604;2023-04-03T04:48:53;3.75;;;1.23;;
54539;SDS011;40438;52.992;18.604;2023-04-03T04:51:21;2.35;;;0.80;;
54539;SDS011;40438;52.992;18.604;2023-04-03T04:53:46;2.15;;;0.73;;
54539;SDS011;40438;52.992;18.604;2023-04-03T04:56:15;3.60;;;0.70;;
54539;SDS011;40438;52.992;18.604;2023-04-03T04:58:43;2.17;;;1.00;;
54539;SDS011;40438;52.992;18.604;2023-04-03T05:01:09;3.33;;;0.90;;
54539;SDS011;40438;52.992;18.604;2023-04-03T05:03:43;2.63;;;0.80;;
54539;SDS011;40438;52.992;18.604;2023-04-03T05:06:09;1.33;;;0.60;;
54539;SDS011;40438;52.992;18.604;2023-04-03T05:08:35;4.70;;;0.60;;
54539;SDS011;40438;52.992;18.604;2023-04-03T05:11:02;2.10;;;0.60;;
54539;SDS011;40438;52.992;18.604;2023-04-03T05:13:30;2.53;;;0.98;;
54539;SDS011;40438;52.992;18.604;2023-04-03T05:15:58;2.65;;;0.70;;
54539;SDS011;40438;52.992;18.604;2023-04-03T05:18:24;1.98;;;0.77;;
54539;SDS011;40438;52.992;18.604;2023-04-03T05:20:52;1.25;;;0.70;;
54539;SDS011;40438;52.992;18.604;2023-04-03T05:23:18;2.63;;;0.73;;
54539;SDS011;40438;52.992;18.604;2023-04-03T05:25:46;2.35;;;0.93;;
54539;SDS011;40438;52.992;18.604;2023-04-03T05:28:11;2.33;;;0.80;;
54539;SDS011;40438;52.992;18.604;2023-04-03T05:30:38;1.73;;;0.70;;
54539;SDS011;40438;52.992;18.604;2023-04-03T05:33:05;2.65;;;0.77;;
54539;SDS011;40438;52.992;18.604;2023-04-03T05:35:38;1.80;;;0.80;;
54539;SDS011;40438;52.992;18.604;2023-04-03T05:38:05;4.50;;;1.00;;
54539;SDS011;40438;52.992;18.604;2023-04-03T05:40:31;3.55;;;0.77;;
54539;SDS011;40438;52.992;18.604;2023-04-03T05:42:57;1.95;;;0.75;;
54539;SDS011;40438;52.992;18.604;2023-04-03T05:45:26;3.15;;;0.77;;
54539;SDS011;40438;52.992;18.604;2023-04-03T05:47:51;1.40;;;1.00;;
54539;SDS011;40438;52.992;18.604;2023-04-03T05:50:19;3.72;;;0.93;;
54539;SDS011;40438;52.992;18.604;2023-04-03T05:52:49;1.08;;;0.70;;
54539;SDS011;40438;52.992;18.604;2023-04-03T05:55:17;3.50;;;1.30;;
54539;SDS011;40438;52.992;18.604;2023-04-03T05:57:43;10.45;;;2.08;;
54539;SDS011;40438;52.992;18.604;2023-04-03T06:00:12;7.13;;;1.30;;
54539;SDS011;40438;52.992;18.604;2023-04-03T06:02:46;7.50;;;2.05;;
54539;SDS011;40438;52.992;18.604;2023-04-03T06:05:17;8.07;;;1.55;;
54539;SDS011;40438;52.992;18.604;2023-04-03T06:07:45;7.28;;;2.08;;
54539;SDS011;40438;52.992;18.604;2023-04-03T06:10:11;8.88;;;1.10;;
54539;SDS011;40438;52.992;18.604;2023-04-03T06:12:37;7.70;;;1.20;;
54539;SDS011;40438;52.992;18.604;2023-04-03T06:15:03;5.40;;;1.10;;
54539;SDS011;40438;52.992;18.604;2023-04-03T06:17:29;6.07;;;1.25;;
54539;SDS011;40438;52.992;18.604;2023-04-03T06:19:55;14.75;;;1.33;;
54539;SDS011;40438;52.992;18.604;2023-04-03T06:22:22;7.50;;;1.48;;
54539;SDS011;40438;52.992;18.604;2023-04-03T06:24:48;6.43;;;1.33;;
54539;SDS011;40438;52.992;18.604;2023-04-03T06:27:14;10.07;;;1.40;;
54539;SDS011;40438;52.992;18.604;2023-04-03T06:29:39;8.20;;;1.48;;
54539;SDS011;40438;52.992;18.604;2023-04-03T06:32:05;4.90;;;1.58;;
54539;SDS011;40438;52.992;18.604;2023-04-03T06:34:31;6.00;;;1.42;;
54539;SDS011;40438;52.992;18.604;2023-04-03T06:36:57;4.18;;;1.30;;
54539;SDS011;40438;52.992;18.604;2023-04-03T06:39:24;11.70;;;1.73;;
54539;SDS011;40438;52.992;18.604;2023-04-03T06:41:50;5.43;;;1.20;;
54539;SDS011;40438;52.992;18.604;2023-04-03T06:44:17;6.63;;;1.50;;
54539;SDS011;40438;52.992;18.604;2023-04-03T06:46:43;7.13;;;1.33;;
54539;SDS011;40438;52.992;18.604;2023-04-03T06:49:09;4.60;;;1.40;;
54539;SDS011;40438;52.992;18.604;2023-04-03T06:51:35;5.32;;;1.58;;
54539;SDS011;40438;52.992;18.604;2023-04-03T06:54:02;8.75;;;1.35;;
54539;SDS011;40438;52.992;18.604;2023-04-03T06:56:30;6.63;;;1.50;;
54539;SDS011;40438;52.992;18.604;2023-04-03T06:58:56;3.50;;;1.15;;
54539;SDS011;40438;52.992;18.604;2023-04-03T07:01:22;4.82;;;1.02;;
54539;SDS011;40438;52.992;18.604;2023-04-03T07:03:49;8.52;;;1.80;;
54539;SDS011;40438;52.992;18.604;2023-04-03T07:06:16;384.75;;;60.80;;
54539;SDS011;40438;52.992;18.604;2023-04-03T07:08:43;449.35;;;70.32;;
54539;SDS011;40438;52.992;18.604;2023-04-03T07:11:10;516.35;;;76.25;;
54539;SDS011;40438;52.992;18.604;2023-04-03T07:13:38;520.00;;;80.10;;
54539;SDS011;40438;52.992;18.604;2023-04-03T07:16:04;447.95;;;66.88;;
54539;SDS011;40438;52.992;18.604;2023-04-03T07:18:31;420.83;;;60.17;;
54539;SDS011;40438;52.992;18.604;2023-04-03T07:20:57;380.50;;;54.15;;
54539;SDS011;40438;52.992;18.604;2023-04-03T07:23:23;310.88;;;48.78;;
54539;SDS011;40438;52.992;18.604;2023-04-03T07:25:49;307.00;;;42.45;;
54539;SDS011;40438;52.992;18.604;2023-04-03T07:28:16;285.90;;;42.25;;
54539;SDS011;40438;52.992;18.604;2023-04-03T07:30:44;259.75;;;41.08;;
54539;SDS011;40438;52.992;18.604;2023-04-03T07:33:12;236.02;;;35.88;;
54539;SDS011;40438;52.992;18.604;2023-04-03T07:35:39;218.90;;;32.88;;
54539;SDS011;40438;52.992;18.604;2023-04-03T07:38:04;187.40;;;31.05;;
54539;SDS011;40438;52.992;18.604;2023-04-03T07:40:30;181.23;;;30.58;;
54539;SDS011;40438;52.992;18.604;2023-04-03T07:42:56;171.20;;;28.73;;
54539;SDS011;40438;52.992;18.604;2023-04-03T07:45:22;172.95;;;28.95;;
54539;SDS011;40438;52.992;18.604;2023-04-03T07:47:49;176.68;;;29.35;;
54539;SDS011;40438;52.992;18.604;2023-04-03T07:50:15;90.15;;;16.88;;
54539;SDS011;40438;52.992;18.604;2023-04-03T07:52:41;141.57;;;23.65;;
54539;SDS011;40438;52.992;18.604;2023-04-03T07:55:07;105.70;;;20.20;;
54539;SDS011;40438;52.992;18.604;2023-04-03T07:57:33;118.90;;;19.65;;
54539;SDS011;40438;52.992;18.604;2023-04-03T07:59:59;112.25;;;19.17;;
54539;SDS011;40438;52.992;18.604;2023-04-03T08:02:25;93.35;;;16.98;;
54539;SDS011;40438;52.992;18.604;2023-04-03T08:04:52;88.63;;;15.25;;
54539;SDS011;40438;52.992;18.604;2023-04-03T08:07:18;85.90;;;14.15;;
54539;SDS011;40438;52.992;18.604;2023-04-03T08:09:44;76.90;;;12.95;;
54539;SDS011;40438;52.992;18.604;2023-04-03T08:12:10;77.93;;;14.30;;
54539;SDS011;40438;52.992;18.604;2023-04-03T08:14:35;77.47;;;12.52;;
54539;SDS011;40438;52.992;18.604;2023-04-03T08:17:01;62.10;;;12.05;;
54539;SDS011;40438;52.992;18.604;2023-04-03T08:19:27;62.42;;;13.07;;
54539;SDS011;40438;52.992;18.604;2023-04-03T08:21:54;58.42;;;11.57;;
54539;SDS011;40438;52.992;18.604;2023-04-03T08:24:20;55.88;;;10.98;;
54539;SDS011;40438;52.992;18.604;2023-04-03T08:26:46;60.58;;;10.18;;
54539;SDS011;40438;52.992;18.604;2023-04-03T08:29:12;46.15;;;10.52;;
54539;SDS011;40438;52.992;18.604;2023-04-03T08:31:38;47.90;;;9.57;;
54539;SDS011;40438;52.992;18.604;2023-04-03T08:34:05;50.30;;;8.88;;
54539;SDS011;40438;52.992;18.604;2023-04-03T08:36:31;40.20;;;9.20;;
54539;SDS011;40438;52.992;18.604;2023-04-03T08:38:58;43.67;;;8.45;;
54539;SDS011;40438;52.992;18.604;2023-04-03T08:41:26;52.00;;;9.32;;
54539;SDS011;40438;52.992;18.604;2023-04-03T08:44:02;38.50;;;7.75;;
54539;SDS011;40438;52.992;18.604;2023-04-03T08:46:40;34.15;;;8.73;;
54539;SDS011;40438;52.992;18.604;2023-04-03T08:49:15;39.78;;;8.70;;
54539;SDS011;40438;52.992;18.604;2023-04-03T08:51:48;39.50;;;7.82;;
54539;SDS011;40438;52.992;18.604;2023-04-03T08:54:19;42.15;;;7.55;;
54539;SDS011;40438;52.992;18.604;2023-04-03T08:56:50;23.58;;;6.78;;
54539;SDS011;40438;52.992;18.604;2023-04-03T08:59:18;28.55;;;6.38;;
54539;SDS011;40438;52.992;18.604;2023-04-03T09:01:49;30.90;;;5.75;;
54539;SDS011;40438;52.992;18.604;2023-04-03T09:04:16;34.88;;;6.70;;
54539;SDS011;40438;52.992;18.604;2023-04-03T09:06:43;32.13;;;6.30;;
54539;SDS011;40438;52.992;18.604;2023-04-03T09:09:12;28.60;;;5.78;;
54539;SDS011;40438;52.992;18.604;2023-04-03T09:11:44;30.00;;;5.93;;
54539;SDS011;40438;52.992;18.604;2023-04-03T09:14:21;32.28;;;6.40;;
54539;SDS011;40438;52.992;18.604;2023-04-03T09:16:52;27.95;;;5.80;;
54539;SDS011;40438;52.992;18.604;2023-04-03T09:19:21;23.23;;;5.90;;
54539;SDS011;40438;52.992;18.604;2023-04-03T09:21:56;26.30;;;4.93;;
54539;SDS011;40438;52.992;18.604;2023-04-03T09:24:22;27.10;;;5.38;;
54539;SDS011;40438;52.992;18.604;2023-04-03T09:26:51;22.50;;;4.50;;
54539;SDS011;40438;52.992;18.604;2023-04-03T09:29:21;20.17;;;4.72;;
54539;SDS011;40438;52.992;18.604;2023-04-03T09:31:48;18.30;;;3.75;;
54539;SDS011;40438;52.992;18.604;2023-04-03T09:34:18;21.80;;;4.40;;
54539;SDS011;40438;52.992;18.604;2023-04-03T09:36:48;18.80;;;4.07;;
54539;SDS011;40438;52.992;18.604;2023-04-03T09:39:15;16.52;;;4.15;;
54539;SDS011;40438;52.992;18.604;2023-04-03T09:41:43;17.92;;;4.43;;
54539;SDS011;40438;52.992;18.604;2023-04-03T09:44:23;15.20;;;3.47;;
54539;SDS011;40438;52.992;18.604;2023-04-03T09:46:50;17.70;;;4.18;;
54539;SDS011;40438;52.992;18.604;2023-04-03T09:49:16;14.02;;;3.92;;
54539;SDS011;40438;52.992;18.604;2023-04-03T09:51:43;15.18;;;4.10;;
54539;SDS011;40438;52.992;18.604;2023-04-03T09:57:07;5.10;;;1.15;;
54539;SDS011;40438;52.992;18.604;2023-04-03T09:59:36;7.70;;;2.00;;
54539;SDS011;40438;52.992;18.604;2023-04-03T10:02:17;7.63;;;1.92;;
54539;SDS011;40438;52.992;18.604;2023-04-03T10:04:48;7.60;;;2.30;;
54539;SDS011;40438;52.992;18.604;2023-04-03T10:07:28;7.57;;;2.42;;
54539;SDS011;40438;52.992;18.604;2023-04-03T10:09:56;9.07;;;2.17;;
54539;SDS011;40438;52.992;18.604;2023-04-03T10:12:24;6.63;;;2.00;;
54539;SDS011;40438;52.992;18.604;2023-04-03T10:14:54;5.72;;;1.77;;
54539;SDS011;40438;52.992;18.604;2023-04-03T10:17:22;8.30;;;2.10;;
54539;SDS011;40438;52.992;18.604;2023-04-03T10:19:56;3.40;;;1.50;;
54539;SDS011;40438;52.992;18.604;2023-04-03T10:22:28;10.25;;;1.85;;
54539;SDS011;40438;52.992;18.604;2023-04-03T10:25:03;7.88;;;2.05;;
54539;SDS011;40438;52.992;18.604;2023-04-03T10:27:37;7.18;;;1.70;;
54539;SDS011;40438;52.992;18.604;2023-04-03T10:30:18;4.82;;;1.77;;
54539;SDS011;40438;52.992;18.604;2023-04-03T10:32:54;10.73;;;2.47;;
54539;SDS011;40438;52.992;18.604;2023-04-03T10:35:31;10.50;;;2.50;;
54539;SDS011;40438;52.992;18.604;2023-04-03T10:38:04;11.35;;;2.10;;
54539;SDS011;40438;52.992;18.604;2023-04-03T10:40:39;8.85;;;1.70;;
54539;SDS011;40438;52.992;18.604;2023-04-03T10:43:18;6.20;;;1.90;;
54539;SDS011;40438;52.992;18.604;2023-04-03T10:45:53;5.47;;;1.77;;
54539;SDS011;40438;52.992;18.604;2023-04-03T10:48:33;5.97;;;1.67;;
54539;SDS011;40438;52.992;18.604;2023-04-03T10:51:08;4.32;;;1.75;;
54539;SDS011;40438;52.992;18.604;2023-04-03T10:53:43;12.75;;;2.20;;
54539;SDS011;40438;52.992;18.604;2023-04-03T10:56:15;6.50;;;1.73;;
54539;SDS011;40438;52.992;18.604;2023-04-03T10:58:47;4.85;;;1.45;;
54539;SDS011;40438;52.992;18.604;2023-04-03T11:01:17;6.72;;;1.88;;
54539;SDS011;40438;52.992;18.604;2023-04-03T11:03:47;5.75;;;2.13;;
54539;SDS011;40438;52.992;18.604;2023-04-03T11:06:16;6.00;;;1.63;;
54539;SDS011;40438;52.992;18.604;2023-04-03T11:08:45;7.88;;;1.50;;
54539;SDS011;40438;52.992;18.604;2023-04-03T11:11:15;5.28;;;1.42;;
54539;SDS011;40438;52.992;18.604;2023-04-03T11:13:48;4.57;;;1.58;;
54539;SDS011;40438;52.992;18.604;2023-04-03T11:16:17;5.73;;;1.60;;
54539;SDS011;40438;52.992;18.604;2023-04-03T11:18:48;4.65;;;1.52;;
54539;SDS011;40438;52.992;18.604;2023-04-03T11:21:19;5.85;;;1.67;;
54539;SDS011;40438;52.992;18.604;2023-04-03T11:23:47;5.75;;;1.98;;
54539;SDS011;40438;52.992;18.604;2023-04-03T11:26:13;6.22;;;2.40;;
54539;SDS011;40438;52.992;18.604;2023-04-03T11:28:41;4.88;;;1.80;;
54539;SDS011;40438;52.992;18.604;2023-04-03T11:31:12;4.78;;;1.50;;
54539;SDS011;40438;52.992;18.604;2023-04-03T11:33:50;4.07;;;1.67;;
54539;SDS011;40438;52.992;18.604;2023-04-03T11:36:23;6.28;;;1.75;;
54539;SDS011;40438;52.992;18.604;2023-04-03T11:38:52;4.25;;;1.67;;
54539;SDS011;40438;52.992;18.604;2023-04-03T11:41:25;6.93;;;2.58;;
54539;SDS011;40438;52.992;18.604;2023-04-03T11:46:23;3.90;;;1.45;;
54539;SDS011;40438;52.992;18.604;2023-04-03T11:58:13;4.22;;;1.20;;
54539;SDS011;40438;52.992;18.604;2023-04-03T12:12:43;6.60;;;1.40;;
54539;SDS011;40438;52.992;18.604;2023-04-03T12:15:23;5.63;;;1.40;;
54539;SDS011;40438;52.992;18.604;2023-04-03T12:17:51;8.68;;;1.30;;
54539;SDS011;40438;52.992;18.604;2023-04-03T12:23:24;7.10;;;1.50;;
54539;SDS011;40438;52.992;18.604;2023-04-03T12:26:00;5.97;;;1.20;;
54539;SDS011;40438;52.992;18.604;2023-04-03T12:28:35;8.13;;;1.40;;
54539;SDS011;40438;52.992;18.604;2023-04-03T12:31:04;5.43;;;1.80;;
54539;SDS011;40438;52.992;18.604;2023-04-03T12:33:32;5.43;;;1.70;;
54539;SDS011;40438;52.992;18.604;2023-04-03T12:36:09;6.40;;;1.70;;
54539;SDS011;40438;52.992;18.604;2023-04-03T12:38:45;7.70;;;2.22;;
54539;SDS011;40438;52.992;18.604;2023-04-03T12:41:30;9.38;;;2.63;;
54539;SDS011;40438;52.992;18.604;2023-04-03T12:44:05;13.35;;;3.15;;
54539;SDS011;40438;52.992;18.604;2023-04-03T12:46:42;20.05;;;3.58;;
54539;SDS011;40438;52.992;18.604;2023-04-03T12:49:23;15.73;;;2.75;;
54539;SDS011;40438;52.992;18.604;2023-04-03T12:51:58;6.07;;;3.05;;
54539;SDS011;40438;52.992;18.604;2023-04-03T12:54:26;11.73;;;2.72;;
54539;SDS011;40438;52.992;18.604;2023-04-03T12:57:09;9.02;;;2.83;;
54539;SDS011;40438;52.992;18.604;2023-04-03T12:59:36;13.48;;;2.95;;
54539;SDS011;40438;52.992;18.604;2023-04-03T13:02:02;12.05;;;2.70;;
54539;SDS011;40438;52.992;18.604;2023-04-03T13:04:28;8.75;;;2.78;;
54539;SDS011;40438;52.992;18.604;2023-04-03T13:06:56;7.53;;;2.97;;
54539;SDS011;40438;52.992;18.604;2023-04-03T13:09:24;6.55;;;2.50;;
54539;SDS011;40438;52.992;18.604;2023-04-03T13:11:51;7.78;;;2.97;;
54539;SDS011;40438;52.992;18.604;2023-04-03T13:14:24;6.95;;;2.33;;
54539;SDS011;40438;52.992;18.604;2023-04-03T13:16:54;8.48;;;2.45;;
54539;SDS011;40438;52.992;18.604;2023-04-03T13:19:22;9.35;;;2.40;;
54539;SDS011;40438;52.992;18.604;2023-04-03T13:21:49;8.35;;;2.40;;
54539;SDS011;40438;52.992;18.604;2023-04-03T13:24:22;12.23;;;2.85;;
54539;SDS011;40438;52.992;18.604;2023-04-03T13:26:47;10.50;;;2.47;;
54539;SDS011;40438;52.992;18.604;2023-04-03T13:29:19;13.55;;;2.10;;
54539;SDS011;40438;52.992;18.604;2023-04-03T13:31:51;9.27;;;2.55;;
54539;SDS011;40438;52.992;18.604;2023-04-03T13:34:18;8.27;;;2.20;;
54539;SDS011;40438;52.992;18.604;2023-04-03T13:36:46;13.82;;;2.30;;
54539;SDS011;40438;52.992;18.604;2023-04-03T13:39:22;6.03;;;1.73;;
54539;SDS011;40438;52.992;18.604;2023-04-03T13:41:49;6.07;;;1.58;;
54539;SDS011;40438;52.992;18.604;2023-04-03T13:44:18;5.85;;;1.65;;
54539;SDS011;40438;52.992;18.604;2023-04-03T13:46:53;7.30;;;2.47;;
54539;SDS011;40438;52.992;18.604;2023-04-03T13:49:20;9.32;;;2.05;;
54539;SDS011;40438;52.992;18.604;2023-04-03T13:51:47;6.28;;;2.22;;
54539;SDS011;40438;52.992;18.604;2023-04-03T13:54:17;11.10;;;2.10;;
54539;SDS011;40438;52.992;18.604;2023-04-03T13:56:44;6.18;;;2.40;;
54539;SDS011;40438;52.992;18.604;2023-04-03T13:59:21;13.20;;;3.83;;
54539;SDS011;40438;52.992;18.604;2023-04-03T14:01:50;13.32;;;5.10;;
54539;SDS011;40438;52.992;18.604;2023-04-03T14:04:20;10.77;;;3.97;;
54539;SDS011;40438;52.992;18.604;2023-04-03T14:06:47;12.65;;;3.10;;
54539;SDS011;40438;52.992;18.604;2023-04-03T14:09:13;12.05;;;2.92;;
54539;SDS011;40438;52.992;18.604;2023-04-03T14:11:40;11.35;;;3.30;;
54539;SDS011;40438;52.992;18.604;2023-04-03T14:14:11;6.45;;;2.00;;
54539;SDS011;40438;52.992;18.604;2023-04-03T14:16:41;6.47;;;2.42;;
54539;SDS011;40438;52.992;18.604;2023-04-03T14:19:12;6.00;;;3.13;;
54539;SDS011;40438;52.992;18.604;2023-04-03T14:21:43;8.48;;;3.67;;
54539;SDS011;40438;52.992;18.604;2023-04-03T14:24:09;6.35;;;2.83;;
54539;SDS011;40438;52.992;18.604;2023-04-03T14:26:34;6.10;;;2.80;;
54539;SDS011;40438;52.992;18.604;2023-04-03T14:29:00;5.35;;;2.35;;
54539;SDS011;40438;52.992;18.604;2023-04-03T14:31:26;8.85;;;2.20;;
54539;SDS011;40438;52.992;18.604;2023-04-03T14:33:52;3.97;;;1.63;;
54539;SDS011;40438;52.992;18.604;2023-04-03T14:36:19;4.57;;;1.63;;
54539;SDS011;40438;52.992;18.604;2023-04-03T14:38:47;4.97;;;1.67;;
54539;SDS011;40438;52.992;18.604;2023-04-03T14:41:14;4.18;;;1.10;;
54539;SDS011;40438;52.992;18.604;2023-04-03T14:43:40;45.83;;;3.00;;
54539;SDS011;40438;52.992;18.604;2023-04-03T14:46:09;4.97;;;1.45;;
54539;SDS011;40438;52.992;18.604;2023-04-03T14:48:38;3.80;;;1.33;;
54539;SDS011;40438;52.992;18.604;2023-04-03T14:51:04;3.70;;;1.20;;
54539;SDS011;40438;52.992;18.604;2023-04-03T14:53:31;4.38;;;2.00;;
54539;SDS011;40438;52.992;18.604;2023-04-03T14:55:57;9.77;;;2.83;;
54539;SDS011;40438;52.992;18.604;2023-04-03T14:58:23;4.13;;;2.15;;
54539;SDS011;40438;52.992;18.604;2023-04-03T15:00:49;10.88;;;2.13;;
54539;SDS011;40438;52.992;18.604;2023-04-03T15:03:15;5.63;;;2.17;;
54539;SDS011;40438;52.992;18.604;2023-04-03T15:05:43;4.72;;;2.20;;